sensor_id;sensor_type;location;lat;lon;timestamp;pressure;altitude;pressure_sealevel;temperature;humidity
71059;BME280;70265;47.576;19.270;2023-10-19T00:00:10;98371.31;;;7.48;79.76
71059;BME280;70265;47.576;19.270;2023-10-19T00:01:26;98374.19;;;7.55;79.06
71059;BME280;70265;47.576;19.270;2023-10-19T00:02:29;98360.00;;;7.57;78.72
71059;BME280;70265;47.576;19.270;2023-10-19T00:03:31;98366.88;;;7.58;78.55
71059;BME280;70265;47.576;19.270;2023-10-19T00:04:35;98359.06;;;7.58;78.74
71059;BME280;70265;47.576;19.270;2023-10-19T00:05:39;98362.31;;;7.60;78.97
71059;BME280;70265;47.576;19.270;2023-10-19T00:06:42;98367.53;;;7.60;79.04
71059;BME280;70265;47.576;19.270;2023-10-19T00:07:46;98355.38;;;7.51;79.03
71059;BME280;70265;47.576;19.270;2023-10-19T00:08:47;98348.06;;;7.55;79.17
71059;BME280;70265;47.576;19.270;2023-10-19T00:09:48;98349.03;;;7.54;79.36
71059;BME280;70265;47.576;19.270;2023-10-19T00:10:54;98351.66;;;7.54;79.53
71059;BME280;70265;47.576;19.270;2023-10-19T00:12:04;98352.47;;;7.54;79.37
71059;BME280;70265;47.576;19.270;2023-10-19T00:13:07;98353.44;;;7.53;79.59
71059;BME280;70265;47.576;19.270;2023-10-19T00:14:09;98347.09;;;7.56;79.68
71059;BME280;70265;47.576;19.270;2023-10-19T00:15:17;98346.03;;;7.49;79.71
71059;BME280;70265;47.576;19.270;2023-10-19T00:16:23;98345.19;;;7.58;79.47
71059;BME280;70265;47.576;19.270;2023-10-19T00:17:29;98341.88;;;7.56;79.42
71059;BME280;70265;47.576;19.270;2023-10-19T00:18:33;98336.41;;;7.49;79.99
71059;BME280;70265;47.576;19.270;2023-10-19T00:19:35;98338.38;;;7.47;80.14
71059;BME280;70265;47.576;19.270;2023-10-19T00:20:44;98339.63;;;7.43;80.46
71059;BME280;70265;47.576;19.270;2023-10-19T00:21:52;98341.28;;;7.44;79.96
71059;BME280;70265;47.576;19.270;2023-10-19T00:23:02;98341.63;;;7.49;79.80
71059;BME280;70265;47.576;19.270;2023-10-19T00:24:07;98337.41;;;7.48;80.51
71059;BME280;70265;47.576;19.270;2023-10-19T00:25:10;98337.41;;;7.48;79.75
71059;BME280;70265;47.576;19.270;2023-10-19T00:26:14;98341.09;;;7.46;80.20
71059;BME280;70265;47.576;19.270;2023-10-19T00:27:18;98335.88;;;7.46;80.24
71059;BME280;70265;47.576;19.270;2023-10-19T00:28:23;98330.66;;;7.46;80.11
71059;BME280;70265;47.576;19.270;2023-10-19T00:29:28;98328.28;;;7.52;80.35
71059;BME280;70265;47.576;19.270;2023-10-19T00:30:33;98326.28;;;7.46;80.11
71059;BME280;70265;47.576;19.270;2023-10-19T00:31:36;98322.31;;;7.42;80.30
71059;BME280;70265;47.576;19.270;2023-10-19T00:32:41;98323.81;;;7.45;80.33
71059;BME280;70265;47.576;19.270;2023-10-19T00:33:42;98316.97;;;7.44;80.36
71059;BME280;70265;47.576;19.270;2023-10-19T00:34:46;98316.72;;;7.37;80.60
71059;BME280;70265;47.576;19.270;2023-10-19T00:35:55;98317.38;;;7.39;81.08
71059;BME280;70265;47.576;19.270;2023-10-19T00:37:07;98320.00;;;7.39;80.89
71059;BME280;70265;47.576;19.270;2023-10-19T00:38:11;98309.25;;;7.42;80.83
71059;BME280;70265;47.576;19.270;2023-10-19T00:39:34;98316.53;;;7.48;80.67
71059;BME280;70265;47.576;19.270;2023-10-19T00:40:44;98315.19;;;7.44;80.90
71059;BME280;70265;47.576;19.270;2023-10-19T00:41:51;98310.63;;;7.46;80.60
71059;BME280;70265;47.576;19.270;2023-10-19T00:42:58;98312.34;;;7.38;80.58
71059;BME280;70265;47.576;19.270;2023-10-19T00:44:00;98309.56;;;7.39;81.21
71059;BME280;70265;47.576;19.270;2023-10-19T00:45:11;98311.44;;;7.47;81.28
71059;BME280;70265;47.576;19.270;2023-10-19T00:46:15;98310.91;;;7.43;80.98
71059;BME280;70265;47.576;19.270;2023-10-19T00:47:25;98317.19;;;7.50;80.66
71059;BME280;70265;47.576;19.270;2023-10-19T00:48:32;98311.97;;;7.50;80.77
71059;BME280;70265;47.576;19.270;2023-10-19T00:49:37;98310.31;;;7.49;80.65
71059;BME280;70265;47.576;19.270;2023-10-19T00:50:39;98313.75;;;7.50;81.08
71059;BME280;70265;47.576;19.270;2023-10-19T00:51:48;98311.56;;;7.45;81.04
71059;BME280;70265;47.576;19.270;2023-10-19T00:52:55;98309.50;;;7.49;81.79
71059;BME280;70265;47.576;19.270;2023-10-19T00:54:04;98308.41;;;7.51;81.20
71059;BME280;70265;47.576;19.270;2023-10-19T00:55:09;98305.41;;;7.46;81.37
71059;BME280;70265;47.576;19.270;2023-10-19T00:56:14;98304.16;;;7.50;81.28
71059;BME280;70265;47.576;19.270;2023-10-19T00:57:19;98307.53;;;7.33;81.56
71059;BME280;70265;47.576;19.270;2023-10-19T00:58:33;98297.28;;;7.22;81.76
71059;BME280;70265;47.576;19.270;2023-10-19T00:59:37;98298.94;;;7.23;82.22
71059;BME280;70265;47.576;19.270;2023-10-19T01:00:44;98296.63;;;7.20;82.07
71059;BME280;70265;47.576;19.270;2023-10-19T01:01:45;98297.09;;;7.33;82.18
71059;BME280;70265;47.576;19.270;2023-10-19T01:02:48;98297.34;;;7.40;81.78
71059;BME280;70265;47.576;19.270;2023-10-19T01:04:00;98293.91;;;7.39;81.95
71059;BME280;70265;47.576;19.270;2023-10-19T01:05:07;98296.50;;;7.39;81.91
71059;BME280;70265;47.576;19.270;2023-10-19T01:06:13;98291.59;;;7.36;81.71
71059;BME280;70265;47.576;19.270;2023-10-19T01:07:20;98292.94;;;7.40;81.54
71059;BME280;70265;47.576;19.270;2023-10-19T01:08:28;98295.91;;;7.45;81.74
71059;BME280;70265;47.576;19.270;2023-10-19T01:09:33;98289.19;;;7.25;82.58
71059;BME280;70265;47.576;19.270;2023-10-19T01:10:39;98291.78;;;7.25;82.22
71059;BME280;70265;47.576;19.270;2023-10-19T01:11:42;98287.50;;;7.34;82.26
71059;BME280;70265;47.576;19.270;2023-10-19T01:12:51;98285.41;;;7.37;81.76
71059;BME280;70265;47.576;19.270;2023-10-19T01:13:52;98275.19;;;7.26;82.51
71059;BME280;70265;47.576;19.270;2023-10-19T01:15:05;98279.19;;;7.21;82.78
71059;BME280;70265;47.576;19.270;2023-10-19T01:16:15;98268.47;;;7.24;82.77
71059;BME280;70265;47.576;19.270;2023-10-19T01:17:27;98267.22;;;7.28;82.53
71059;BME280;70265;47.576;19.270;2023-10-19T01:18:34;98266.09;;;7.30;82.82
71059;BME280;70265;47.576;19.270;2023-10-19T01:19:37;98267.88;;;7.30;82.72
71059;BME280;70265;47.576;19.270;2023-10-19T01:20:41;98259.34;;;7.37;82.53
71059;BME280;70265;47.576;19.270;2023-10-19T01:21:51;98255.06;;;7.36;83.53
71059;BME280;70265;47.576;19.270;2023-10-19T01:23:04;98247.78;;;7.40;83.20
71059;BME280;70265;47.576;19.270;2023-10-19T01:24:18;98254.66;;;7.41;82.89
71059;BME280;70265;47.576;19.270;2023-10-19T01:25:28;98244.44;;;7.47;82.77
71059;BME280;70265;47.576;19.270;2023-10-19T01:26:35;98248.16;;;7.45;82.81
71059;BME280;70265;47.576;19.270;2023-10-19T01:27:39;98252.91;;;7.49;83.04
71059;BME280;70265;47.576;19.270;2023-10-19T01:28:40;98256.25;;;7.42;83.18
71059;BME280;70265;47.576;19.270;2023-10-19T01:29:47;98254.47;;;7.42;83.15
71059;BME280;70265;47.576;19.270;2023-10-19T01:31:00;98255.16;;;7.44;83.28
71059;BME280;70265;47.576;19.270;2023-10-19T01:32:07;98254.78;;;7.39;83.23
71059;BME280;70265;47.576;19.270;2023-10-19T01:33:12;98258.09;;;7.32;83.36
71059;BME280;70265;47.576;19.270;2023-10-19T01:34:14;98254.25;;;7.36;83.54
71059;BME280;70265;47.576;19.270;2023-10-19T01:35:20;98252.66;;;7.25;84.55
71059;BME280;70265;47.576;19.270;2023-10-19T01:36:21;98251.41;;;7.29;84.81
71059;BME280;70265;47.576;19.270;2023-10-19T01:37:26;98254.53;;;7.33;85.10
71059;BME280;70265;47.576;19.270;2023-10-19T01:38:32;98258.63;;;7.35;85.40
71059;BME280;70265;47.576;19.270;2023-10-19T01:39:34;98258.22;;;7.40;85.02
71059;BME280;70265;47.576;19.270;2023-10-19T01:40:37;98253.00;;;7.40;85.48
71059;BME280;70265;47.576;19.270;2023-10-19T01:41:46;98253.19;;;7.29;85.74
71059;BME280;70265;47.576;19.270;2023-10-19T01:42:51;98247.84;;;7.30;86.98
71059;BME280;70265;47.576;19.270;2023-10-19T01:43:53;98251.69;;;7.26;86.60
71059;BME280;70265;47.576;19.270;2023-10-19T01:44:54;98247.97;;;7.29;88.32
71059;BME280;70265;47.576;19.270;2023-10-19T01:45:55;98253.59;;;7.34;86.82
71059;BME280;70265;47.576;19.270;2023-10-19T01:46:59;98250.03;;;7.35;86.98
71059;BME280;70265;47.576;19.270;2023-10-19T01:48:01;98251.50;;;7.37;87.16
71059;BME280;70265;47.576;19.270;2023-10-19T01:49:04;98247.91;;;7.38;87.74
71059;BME280;70265;47.576;19.270;2023-10-19T01:50:11;98249.75;;;7.28;89.01
71059;BME280;70265;47.576;19.270;2023-10-19T01:51:21;98246.59;;;7.34;88.08
71059;BME280;70265;47.576;19.270;2023-10-19T01:52:23;98242.19;;;7.35;88.32
71059;BME280;70265;47.576;19.270;2023-10-19T01:53:27;98243.97;;;7.34;89.50
71059;BME280;70265;47.576;19.270;2023-10-19T01:54:31;98239.13;;;7.39;89.07
71059;BME280;70265;47.576;19.270;2023-10-19T01:55:37;98245.66;;;7.26;91.05
71059;BME280;70265;47.576;19.270;2023-10-19T01:56:38;98230.09;;;7.34;89.72
71059;BME280;70265;47.576;19.270;2023-10-19T01:57:44;98233.06;;;7.39;89.86
71059;BME280;70265;47.576;19.270;2023-10-19T01:58:46;98222.50;;;7.40;89.99
71059;BME280;70265;47.576;19.270;2023-10-19T01:59:47;98218.13;;;7.41;89.90
71059;BME280;70265;47.576;19.270;2023-10-19T02:00:48;98224.38;;;7.30;90.33
71059;BME280;70265;47.576;19.270;2023-10-19T02:01:55;98215.03;;;7.10;92.22
71059;BME280;70265;47.576;19.270;2023-10-19T02:02:56;98215.09;;;7.18;91.81
71059;BME280;70265;47.576;19.270;2023-10-19T02:03:59;98214.53;;;7.24;91.71
71059;BME280;70265;47.576;19.270;2023-10-19T02:05:07;98208.03;;;7.28;92.61
71059;BME280;70265;47.576;19.270;2023-10-19T02:06:15;98208.56;;;7.32;92.04
71059;BME280;70265;47.576;19.270;2023-10-19T02:07:20;98211.69;;;7.35;92.97
71059;BME280;70265;47.576;19.270;2023-10-19T02:08:24;98210.59;;;7.38;93.35
71059;BME280;70265;47.576;19.270;2023-10-19T02:09:27;98212.28;;;7.29;94.08
71059;BME280;70265;47.576;19.270;2023-10-19T02:10:32;98208.41;;;7.33;93.40
71059;BME280;70265;47.576;19.270;2023-10-19T02:11:33;98210.50;;;7.30;93.37
71059;BME280;70265;47.576;19.270;2023-10-19T02:12:39;98200.19;;;7.28;93.87
71059;BME280;70265;47.576;19.270;2023-10-19T02:13:43;98202.44;;;7.23;94.45
71059;BME280;70265;47.576;19.270;2023-10-19T02:14:46;98203.63;;;7.29;94.44
71059;BME280;70265;47.576;19.270;2023-10-19T02:15:49;98199.41;;;7.28;94.56
71059;BME280;70265;47.576;19.270;2023-10-19T02:16:53;98198.28;;;7.30;93.87
71059;BME280;70265;47.576;19.270;2023-10-19T02:18:00;98197.53;;;7.20;94.08
71059;BME280;70265;47.576;19.270;2023-10-19T02:19:02;98202.28;;;7.07;95.42
71059;BME280;70265;47.576;19.270;2023-10-19T02:20:10;98195.22;;;7.17;94.90
71059;BME280;70265;47.576;19.270;2023-10-19T02:21:18;98196.94;;;7.26;94.53
71059;BME280;70265;47.576;19.270;2023-10-19T02:22:22;98199.09;;;7.31;94.75
71059;BME280;70265;47.576;19.270;2023-10-19T02:23:26;98203.06;;;7.35;94.46
71059;BME280;70265;47.576;19.270;2023-10-19T02:24:27;98201.25;;;7.35;94.30
71059;BME280;70265;47.576;19.270;2023-10-19T02:25:28;98204.69;;;7.36;94.99
71059;BME280;70265;47.576;19.270;2023-10-19T02:26:34;98195.66;;;7.30;96.14
71059;BME280;70265;47.576;19.270;2023-10-19T02:27:35;98198.19;;;7.22;97.70
71059;BME280;70265;47.576;19.270;2023-10-19T02:28:39;98195.44;;;7.24;98.21
71059;BME280;70265;47.576;19.270;2023-10-19T02:29:44;98195.06;;;7.18;97.51
71059;BME280;70265;47.576;19.270;2023-10-19T02:30:47;98202.13;;;7.08;95.77
71059;BME280;70265;47.576;19.270;2023-10-19T02:31:50;98193.41;;;7.00;96.46
71059;BME280;70265;47.576;19.270;2023-10-19T02:32:53;98197.19;;;7.05;95.89
71059;BME280;70265;47.576;19.270;2023-10-19T02:33:54;98201.38;;;7.16;95.63
71059;BME280;70265;47.576;19.270;2023-10-19T02:35:06;98195.88;;;7.19;95.20
71059;BME280;70265;47.576;19.270;2023-10-19T02:36:08;98198.34;;;7.21;95.15
71059;BME280;70265;47.576;19.270;2023-10-19T02:37:13;98189.59;;;7.12;96.54
71059;BME280;70265;47.576;19.270;2023-10-19T02:38:14;98185.13;;;7.04;96.03
71059;BME280;70265;47.576;19.270;2023-10-19T02:39:18;98184.19;;;6.78;97.37
71059;BME280;70265;47.576;19.270;2023-10-19T02:40:19;98185.59;;;6.73;97.94
71059;BME280;70265;47.576;19.270;2023-10-19T02:41:21;98181.22;;;6.63;99.69
71059;BME280;70265;47.576;19.270;2023-10-19T02:42:26;98181.03;;;6.75;98.98
71059;BME280;70265;47.576;19.270;2023-10-19T02:43:29;98178.97;;;6.78;98.82
71059;BME280;70265;47.576;19.270;2023-10-19T02:44:33;98181.44;;;6.80;98.70
71059;BME280;70265;47.576;19.270;2023-10-19T02:45:35;98179.84;;;6.69;99.13
71059;BME280;70265;47.576;19.270;2023-10-19T02:46:38;98173.16;;;6.67;99.38
71059;BME280;70265;47.576;19.270;2023-10-19T02:47:40;98178.31;;;6.76;100.00
71059;BME280;70265;47.576;19.270;2023-10-19T02:48:43;98186.19;;;6.67;100.00
71059;BME280;70265;47.576;19.270;2023-10-19T02:49:45;98179.16;;;6.67;100.00
71059;BME280;70265;47.576;19.270;2023-10-19T02:50:52;98181.03;;;6.75;100.00
71059;BME280;70265;47.576;19.270;2023-10-19T02:51:53;98184.66;;;6.64;100.00
71059;BME280;70265;47.576;19.270;2023-10-19T02:52:54;98172.56;;;6.45;100.00
71059;BME280;70265;47.576;19.270;2023-10-19T02:53:58;98179.41;;;6.46;100.00
71059;BME280;70265;47.576;19.270;2023-10-19T02:55:03;98177.97;;;6.61;100.00
71059;BME280;70265;47.576;19.270;2023-10-19T02:56:12;98181.91;;;6.38;100.00
71059;BME280;70265;47.576;19.270;2023-10-19T02:57:14;98183.81;;;6.36;100.00
71059;BME280;70265;47.576;19.270;2023-10-19T02:58:18;98175.53;;;6.50;100.00
71059;BME280;70265;47.576;19.270;2023-10-19T02:59:23;98172.38;;;6.56;100.00
71059;BME280;70265;47.576;19.270;2023-10-19T03:00:24;98174.47;;;6.43;100.00
71059;BME280;70265;47.576;19.270;2023-10-19T03:01:33;98173.31;;;6.28;100.00
71059;BME280;70265;47.576;19.270;2023-10-19T03:02:39;98174.28;;;6.18;100.00
71059;BME280;70265;47.576;19.270;2023-10-19T03:03:40;98181.69;;;6.22;100.00
71059;BME280;70265;47.576;19.270;2023-10-19T03:04:44;98166.56;;;6.35;100.00
71059;BME280;70265;47.576;19.270;2023-10-19T03:05:49;98169.41;;;6.42;100.00
71059;BME280;70265;47.576;19.270;2023-10-19T03:06:52;98166.75;;;6.51;100.00
71059;BME280;70265;47.576;19.270;2023-10-19T03:07:53;98167.28;;;6.28;100.00
71059;BME280;70265;47.576;19.270;2023-10-19T03:08:56;98158.84;;;6.06;100.00
71059;BME280;70265;47.576;19.270;2023-10-19T03:09:58;98165.09;;;6.23;100.00
71059;BME280;70265;47.576;19.270;2023-10-19T03:11:01;98160.94;;;6.30;100.00
71059;BME280;70265;47.576;19.270;2023-10-19T03:12:05;98165.03;;;6.42;100.00
71059;BME280;70265;47.576;19.270;2023-10-19T03:13:11;98161.34;;;6.35;100.00
71059;BME280;70265;47.576;19.270;2023-10-19T03:14:18;98160.31;;;6.09;100.00
71059;BME280;70265;47.576;19.270;2023-10-19T03:15:19;98151.53;;;6.20;100.00
71059;BME280;70265;47.576;19.270;2023-10-19T03:16:24;98152.44;;;6.01;100.00
71059;BME280;70265;47.576;19.270;2023-10-19T03:17:29;98144.91;;;5.98;100.00
71059;BME280;70265;47.576;19.270;2023-10-19T03:18:31;98145.44;;;6.01;100.00
71059;BME280;70265;47.576;19.270;2023-10-19T03:19:34;98142.97;;;6.00;100.00
71059;BME280;70265;47.576;19.270;2023-10-19T03:20:37;98137.38;;;5.95;100.00
71059;BME280;70265;47.576;19.270;2023-10-19T03:21:39;98126.53;;;5.99;100.00
71059;BME280;70265;47.576;19.270;2023-10-19T03:22:43;98122.75;;;5.75;100.00
71059;BME280;70265;47.576;19.270;2023-10-19T03:23:48;98121.47;;;5.79;100.00
71059;BME280;70265;47.576;19.270;2023-10-19T03:24:50;98121.50;;;5.69;100.00
71059;BME280;70265;47.576;19.270;2023-10-19T03:26:00;98125.09;;;5.68;100.00
71059;BME280;70265;47.576;19.270;2023-10-19T03:27:16;98111.13;;;5.50;100.00
71059;BME280;70265;47.576;19.270;2023-10-19T03:28:22;98109.22;;;5.52;100.00
71059;BME280;70265;47.576;19.270;2023-10-19T03:29:30;98109.38;;;5.50;100.00
71059;BME280;70265;47.576;19.270;2023-10-19T03:30:32;98106.31;;;5.55;100.00
71059;BME280;70265;47.576;19.270;2023-10-19T03:31:40;98100.88;;;5.48;100.00
71059;BME280;70265;47.576;19.270;2023-10-19T03:32:44;98099.91;;;5.49;100.00
71059;BME280;70265;47.576;19.270;2023-10-19T03:33:48;98095.94;;;5.45;100.00
71059;BME280;70265;47.576;19.270;2023-10-19T03:34:51;98092.53;;;5.45;100.00
71059;BME280;70265;47.576;19.270;2023-10-19T03:35:56;98099.78;;;5.41;100.00
71059;BME280;70265;47.576;19.270;2023-10-19T03:36:57;98089.94;;;5.35;100.00
71059;BME280;70265;47.576;19.270;2023-10-19T03:38:05;98085.28;;;5.39;100.00
71059;BME280;70265;47.576;19.270;2023-10-19T03:39:15;98084.34;;;5.40;100.00
71059;BME280;70265;47.576;19.270;2023-10-19T03:40:20;98089.91;;;5.45;100.00
71059;BME280;70265;47.576;19.270;2023-10-19T03:41:28;98093.75;;;5.60;100.00
71059;BME280;70265;47.576;19.270;2023-10-19T03:42:31;98094.28;;;5.63;100.00
71059;BME280;70265;47.576;19.270;2023-10-19T03:43:41;98096.34;;;5.60;100.00
71059;BME280;70265;47.576;19.270;2023-10-19T03:44:48;98098.78;;;5.61;100.00
71059;BME280;70265;47.576;19.270;2023-10-19T03:45:54;98103.56;;;5.76;100.00
71059;BME280;70265;47.576;19.270;2023-10-19T03:46:56;98104.78;;;5.81;100.00
71059;BME280;70265;47.576;19.270;2023-10-19T03:48:05;98094.66;;;5.88;100.00
71059;BME280;70265;47.576;19.270;2023-10-19T03:49:10;98110.41;;;5.77;100.00
71059;BME280;70265;47.576;19.270;2023-10-19T03:50:14;98097.25;;;5.78;100.00
71059;BME280;70265;47.576;19.270;2023-10-19T03:51:20;98093.25;;;5.93;100.00
71059;BME280;70265;47.576;19.270;2023-10-19T03:52:25;98096.94;;;6.00;100.00
71059;BME280;70265;47.576;19.270;2023-10-19T03:53:30;98091.06;;;5.98;100.00
71059;BME280;70265;47.576;19.270;2023-10-19T03:54:37;98091.38;;;5.86;100.00
71059;BME280;70265;47.576;19.270;2023-10-19T03:55:40;98093.13;;;5.95;100.00
71059;BME280;70265;47.576;19.270;2023-10-19T03:56:44;98086.66;;;5.99;100.00
71059;BME280;70265;47.576;19.270;2023-10-19T03:57:46;98088.47;;;5.79;100.00
71059;BME280;70265;47.576;19.270;2023-10-19T03:58:55;98091.06;;;5.89;100.00
71059;BME280;70265;47.576;19.270;2023-10-19T04:00:02;98087.22;;;5.93;100.00
71059;BME280;70265;47.576;19.270;2023-10-19T04:01:11;98085.22;;;5.77;100.00
71059;BME280;70265;47.576;19.270;2023-10-19T04:02:12;98085.91;;;5.70;100.00
71059;BME280;70265;47.576;19.270;2023-10-19T04:03:14;98082.19;;;5.72;100.00
71059;BME280;70265;47.576;19.270;2023-10-19T04:04:18;98078.34;;;5.86;100.00
71059;BME280;70265;47.576;19.270;2023-10-19T04:05:21;98078.47;;;5.94;100.00
71059;BME280;70265;47.576;19.270;2023-10-19T04:06:26;98074.63;;;5.98;100.00
71059;BME280;70265;47.576;19.270;2023-10-19T04:07:28;98073.25;;;5.94;100.00
71059;BME280;70265;47.576;19.270;2023-10-19T04:08:32;98077.91;;;6.00;100.00
71059;BME280;70265;47.576;19.270;2023-10-19T04:09:38;98076.25;;;5.99;100.00
71059;BME280;70265;47.576;19.270;2023-10-19T04:10:57;98079.53;;;6.01;100.00
71059;BME280;70265;47.576;19.270;2023-10-19T04:12:09;98079.25;;;6.04;100.00
71059;BME280;70265;47.576;19.270;2023-10-19T04:13:13;98075.25;;;6.09;100.00
71059;BME280;70265;47.576;19.270;2023-10-19T04:14:14;98076.78;;;6.02;100.00
71059;BME280;70265;47.576;19.270;2023-10-19T04:15:21;98072.97;;;5.97;100.00
71059;BME280;70265;47.576;19.270;2023-10-19T04:16:23;98064.25;;;5.88;100.00
71059;BME280;70265;47.576;19.270;2023-10-19T04:17:29;98065.66;;;5.63;100.00
71059;BME280;70265;47.576;19.270;2023-10-19T04:18:30;98064.53;;;5.76;100.00
71059;BME280;70265;47.576;19.270;2023-10-19T04:19:35;98061.38;;;5.91;100.00
71059;BME280;70265;47.576;19.270;2023-10-19T04:20:36;98067.53;;;5.81;100.00
71059;BME280;70265;47.576;19.270;2023-10-19T04:21:57;98069.72;;;5.76;100.00
71059;BME280;70265;47.576;19.270;2023-10-19T04:22:58;98069.19;;;5.91;100.00
71059;BME280;70265;47.576;19.270;2023-10-19T04:24:11;98073.81;;;5.97;100.00
71059;BME280;70265;47.576;19.270;2023-10-19T04:25:15;98068.75;;;5.86;100.00
71059;BME280;70265;47.576;19.270;2023-10-19T04:26:17;98065.34;;;5.86;100.00
71059;BME280;70265;47.576;19.270;2023-10-19T04:27:21;98062.56;;;5.97;100.00
71059;BME280;70265;47.576;19.270;2023-10-19T04:28:23;98057.34;;;5.97;100.00
71059;BME280;70265;47.576;19.270;2023-10-19T04:29:38;98059.84;;;5.89;100.00
71059;BME280;70265;47.576;19.270;2023-10-19T04:30:44;98048.31;;;6.01;100.00
71059;BME280;70265;47.576;19.270;2023-10-19T04:31:49;98054.75;;;5.97;100.00
71059;BME280;70265;47.576;19.270;2023-10-19T04:32:51;98054.31;;;5.64;100.00
71059;BME280;70265;47.576;19.270;2023-10-19T04:33:56;98049.09;;;5.55;100.00
71059;BME280;70265;47.576;19.270;2023-10-19T04:34:58;98040.22;;;5.57;100.00
71059;BME280;70265;47.576;19.270;2023-10-19T04:36:04;98041.78;;;5.41;100.00
71059;BME280;70265;47.576;19.270;2023-10-19T04:37:09;98045.44;;;5.38;100.00
71059;BME280;70265;47.576;19.270;2023-10-19T04:38:18;98034.75;;;5.41;100.00
71059;BME280;70265;47.576;19.270;2023-10-19T04:39:20;98035.56;;;5.51;100.00
71059;BME280;70265;47.576;19.270;2023-10-19T04:40:24;98028.63;;;5.42;100.00
71059;BME280;70265;47.576;19.270;2023-10-19T04:41:26;98035.56;;;5.51;100.00
71059;BME280;70265;47.576;19.270;2023-10-19T04:42:30;98028.00;;;5.58;100.00
71059;BME280;70265;47.576;19.270;2023-10-19T04:43:33;98028.59;;;5.52;100.00
71059;BME280;70265;47.576;19.270;2023-10-19T04:44:34;98030.06;;;5.64;100.00
71059;BME280;70265;47.576;19.270;2023-10-19T04:45:40;98038.78;;;5.73;100.00
71059;BME280;70265;47.576;19.270;2023-10-19T04:46:44;98034.66;;;5.80;100.00
71059;BME280;70265;47.576;19.270;2023-10-19T04:47:50;98040.97;;;5.87;100.00
71059;BME280;70265;47.576;19.270;2023-10-19T04:48:53;98036.84;;;5.94;100.00
71059;BME280;70265;47.576;19.270;2023-10-19T04:49:56;98032.75;;;5.91;100.00
71059;BME280;70265;47.576;19.270;2023-10-19T04:50:58;98040.00;;;5.88;100.00
71059;BME280;70265;47.576;19.270;2023-10-19T04:52:01;98043.66;;;5.85;100.00
71059;BME280;70265;47.576;19.270;2023-10-19T04:53:04;98040.97;;;5.77;100.00
71059;BME280;70265;47.576;19.270;2023-10-19T04:54:05;98032.94;;;5.71;100.00
71059;BME280;70265;47.576;19.270;2023-10-19T04:55:09;98043.88;;;5.74;100.00
71059;BME280;70265;47.576;19.270;2023-10-19T04:56:10;98035.81;;;5.58;100.00
71059;BME280;70265;47.576;19.270;2023-10-19T04:57:14;98038.00;;;5.62;100.00
71059;BME280;70265;47.576;19.270;2023-10-19T04:58:16;98040.31;;;5.65;100.00
71059;BME280;70265;47.576;19.270;2023-10-19T04:59:19;98039.16;;;5.50;100.00
71059;BME280;70265;47.576;19.270;2023-10-19T05:00:20;98032.16;;;5.51;100.00
71059;BME280;70265;47.576;19.270;2023-10-19T05:01:25;98034.47;;;5.54;100.00
71059;BME280;70265;47.576;19.270;2023-10-19T05:02:29;98025.06;;;5.43;100.00
71059;BME280;70265;47.576;19.270;2023-10-19T05:03:30;98025.75;;;5.36;100.00
71059;BME280;70265;47.576;19.270;2023-10-19T05:04:34;98031.38;;;5.31;100.00
71059;BME280;70265;47.576;19.270;2023-10-19T05:05:36;98032.09;;;5.24;100.00
71059;BME280;70265;47.576;19.270;2023-10-19T05:06:40;98029.75;;;5.21;100.00
71059;BME280;70265;47.576;19.270;2023-10-19T05:07:41;98027.56;;;5.26;100.00
71059;BME280;70265;47.576;19.270;2023-10-19T05:08:45;98023.97;;;5.36;100.00
71059;BME280;70265;47.576;19.270;2023-10-19T05:09:47;98030.25;;;5.43;100.00
71059;BME280;70265;47.576;19.270;2023-10-19T05:10:52;98017.53;;;5.40;100.00
71059;BME280;70265;47.576;19.270;2023-10-19T05:11:54;98027.94;;;5.40;100.00
71059;BME280;70265;47.576;19.270;2023-10-19T05:13:01;98017.25;;;5.43;100.00
71059;BME280;70265;47.576;19.270;2023-10-19T05:14:04;98016.56;;;5.41;100.00
71059;BME280;70265;47.576;19.270;2023-10-19T05:15:09;98013.97;;;5.41;100.00
71059;BME280;70265;47.576;19.270;2023-10-19T05:16:10;98018.78;;;5.36;100.00
71059;BME280;70265;47.576;19.270;2023-10-19T05:17:16;98014.66;;;5.43;100.00
71059;BME280;70265;47.576;19.270;2023-10-19T05:18:20;98010.69;;;5.39;100.00
71059;BME280;70265;47.576;19.270;2023-10-19T05:19:24;98007.97;;;5.41;100.00
71059;BME280;70265;47.576;19.270;2023-10-19T05:20:25;98008.75;;;5.41;100.00
71059;BME280;70265;47.576;19.270;2023-10-19T05:21:26;98015.63;;;5.42;100.00
71059;BME280;70265;47.576;19.270;2023-10-19T05:22:31;98015.03;;;5.48;100.00
71059;BME280;70265;47.576;19.270;2023-10-19T05:23:33;98012.72;;;5.45;100.00
71059;BME280;70265;47.576;19.270;2023-10-19T05:24:37;98020.81;;;5.42;100.00
71059;BME280;70265;47.576;19.270;2023-10-19T05:25:38;98017.53;;;5.40;100.00
71059;BME280;70265;47.576;19.270;2023-10-19T05:26:42;98021.13;;;5.30;100.00
71059;BME280;70265;47.576;19.270;2023-10-19T05:27:43;98020.84;;;5.33;100.00
71059;BME280;70265;47.576;19.270;2023-10-19T05:28:47;98022.50;;;5.34;100.00
71059;BME280;70265;47.576;19.270;2023-10-19T05:29:48;98016.28;;;5.44;100.00
71059;BME280;70265;47.576;19.270;2023-10-19T05:30:52;98018.88;;;5.44;100.00
71059;BME280;70265;47.576;19.270;2023-10-19T05:31:55;98020.44;;;5.37;100.00
71059;BME280;70265;47.576;19.270;2023-10-19T05:32:59;98017.25;;;5.43;100.00
71059;BME280;70265;47.576;19.270;2023-10-19T05:34:03;98022.63;;;5.32;100.00
71059;BME280;70265;47.576;19.270;2023-10-19T05:35:08;98019.34;;;5.30;100.00
71059;BME280;70265;47.576;19.270;2023-10-19T05:36:13;98015.38;;;5.26;100.00
71059;BME280;70265;47.576;19.270;2023-10-19T05:37:17;98019.63;;;5.27;100.00
71059;BME280;70265;47.576;19.270;2023-10-19T05:38:19;98019.44;;;5.38;100.00
71059;BME280;70265;47.576;19.270;2023-10-19T05:39:23;98020.44;;;5.37;100.00
71059;BME280;70265;47.576;19.270;2023-10-19T05:40:28;98020.16;;;5.40;100.00